sensor_id;sensor_type;location;lat;lon;timestamp;P1;durP1;ratioP1;P2;durP2;ratioP2
27804;SDS011;15183;51.350;11.102;2023-01-01T00:01:41;6.72;;;2.83;;
27804;SDS011;15183;51.350;11.102;2023-01-01T00:04:10;5.45;;;3.22;;
27804;SDS011;15183;51.350;11.102;2023-01-01T00:06:39;4.70;;;2.25;;
27804;SDS011;15183;51.350;11.102;2023-01-01T00:09:06;3.90;;;2.70;;
27804;SDS011;15183;51.350;11.102;2023-01-01T00:11:51;3.85;;;2.55;;
27804;SDS011;15183;51.350;11.102;2023-01-01T00:14:17;10.80;;;3.10;;
27804;SDS011;15183;51.350;11.102;2023-01-01T00:16:44;6.95;;;2.35;;
27804;SDS011;15183;51.350;11.102;2023-01-01T00:19:10;4.68;;;2.45;;
27804;SDS011;15183;51.350;11.102;2023-01-01T00:21:36;4.80;;;2.60;;
27804;SDS011;15183;51.350;11.102;2023-01-01T00:24:05;11.13;;;5.65;;
27804;SDS011;15183;51.350;11.102;2023-01-01T00:26:32;4.03;;;3.22;;
27804;SDS011;15183;51.350;11.102;2023-01-01T00:28:58;6.85;;;3.50;;
27804;SDS011;15183;51.350;11.102;2023-01-01T00:31:24;5.28;;;2.72;;
27804;SDS011;15183;51.350;11.102;2023-01-01T00:33:52;5.00;;;2.83;;
27804;SDS011;15183;51.350;11.102;2023-01-01T00:36:20;4.38;;;2.67;;
27804;SDS011;15183;51.350;11.102;2023-01-01T00:38:49;5.53;;;3.10;;
27804;SDS011;15183;51.350;11.102;2023-01-01T00:41:16;6.18;;;3.28;;
27804;SDS011;15183;51.350;11.102;2023-01-01T00:43:43;6.55;;;3.22;;
27804;SDS011;15183;51.350;11.102;2023-01-01T00:46:09;5.50;;;2.72;;
27804;SDS011;15183;51.350;11.102;2023-01-01T00:48:37;8.60;;;3.05;;
27804;SDS011;15183;51.350;11.102;2023-01-01T00:51:03;5.90;;;2.88;;
27804;SDS011;15183;51.350;11.102;2023-01-01T00:53:31;5.47;;;2.95;;
27804;SDS011;15183;51.350;11.102;2023-01-01T00:55:58;5.43;;;2.92;;
27804;SDS011;15183;51.350;11.102;2023-01-01T00:58:24;5.13;;;2.75;;
27804;SDS011;15183;51.350;11.102;2023-01-01T01:00:51;8.85;;;2.97;;
27804;SDS011;15183;51.350;11.102;2023-01-01T01:03:19;6.47;;;2.70;;
27804;SDS011;15183;51.350;11.102;2023-01-01T01:08:29;6.55;;;2.17;;
27804;SDS011;15183;51.350;11.102;2023-01-01T01:11:19;3.13;;;2.35;;
27804;SDS011;15183;51.350;11.102;2023-01-01T01:13:49;4.47;;;2.97;;
27804;SDS011;15183;51.350;11.102;2023-01-01T01:16:19;4.95;;;2.70;;
27804;SDS011;15183;51.350;11.102;2023-01-01T01:18:58;5.13;;;2.90;;
27804;SDS011;15183;51.350;11.102;2023-01-01T01:21:27;7.38;;;2.63;;
27804;SDS011;15183;51.350;11.102;2023-01-01T01:23:56;7.43;;;3.00;;
27804;SDS011;15183;51.350;11.102;2023-01-01T01:26:25;4.03;;;2.33;;
27804;SDS011;15183;51.350;11.102;2023-01-01T01:28:55;5.22;;;2.83;;
27804;SDS011;15183;51.350;11.102;2023-01-01T01:31:23;5.70;;;2.33;;
27804;SDS011;15183;51.350;11.102;2023-01-01T01:33:53;5.35;;;2.85;;
27804;SDS011;15183;51.350;11.102;2023-01-01T01:36:19;6.70;;;2.42;;
27804;SDS011;15183;51.350;11.102;2023-01-01T01:38:46;8.43;;;2.22;;
27804;SDS011;15183;51.350;11.102;2023-01-01T01:41:15;4.75;;;2.83;;
27804;SDS011;15183;51.350;11.102;2023-01-01T01:47:04;5.60;;;3.15;;
27804;SDS011;15183;51.350;11.102;2023-01-01T01:49:36;3.17;;;2.20;;
27804;SDS011;15183;51.350;11.102;2023-01-01T01:52:03;6.95;;;2.67;;
27804;SDS011;15183;51.350;11.102;2023-01-01T01:54:29;5.97;;;2.53;;
27804;SDS011;15183;51.350;11.102;2023-01-01T01:56:57;9.38;;;2.45;;
27804;SDS011;15183;51.350;11.102;2023-01-01T01:59:32;6.10;;;2.22;;
27804;SDS011;15183;51.350;11.102;2023-01-01T02:02:19;6.78;;;2.40;;
27804;SDS011;15183;51.350;11.102;2023-01-01T02:04:58;7.68;;;2.50;;
27804;SDS011;15183;51.350;11.102;2023-01-01T02:07:24;7.50;;;2.38;;
27804;SDS011;15183;51.350;11.102;2023-01-01T02:09:54;5.68;;;2.58;;
27804;SDS011;15183;51.350;11.102;2023-01-01T02:12:21;4.95;;;2.30;;
27804;SDS011;15183;51.350;11.102;2023-01-01T02:14:48;5.97;;;2.45;;
27804;SDS011;15183;51.350;11.102;2023-01-01T02:17:19;4.55;;;2.80;;
27804;SDS011;15183;51.350;11.102;2023-01-01T02:20:42;4.72;;;2.53;;
27804;SDS011;15183;51.350;11.102;2023-01-01T02:26:16;5.15;;;1.85;;
27804;SDS011;15183;51.350;11.102;2023-01-01T02:29:30;4.68;;;1.98;;
27804;SDS011;15183;51.350;11.102;2023-01-01T02:32:13;4.47;;;2.47;;
27804;SDS011;15183;51.350;11.102;2023-01-01T02:34:54;5.43;;;2.50;;
27804;SDS011;15183;51.350;11.102;2023-01-01T02:37:50;4.22;;;2.20;;
27804;SDS011;15183;51.350;11.102;2023-01-01T02:40:22;4.18;;;2.38;;
27804;SDS011;15183;51.350;11.102;2023-01-01T02:42:49;3.42;;;2.30;;
27804;SDS011;15183;51.350;11.102;2023-01-01T02:45:18;7.35;;;2.30;;
27804;SDS011;15183;51.350;11.102;2023-01-01T02:47:45;3.28;;;2.17;;
27804;SDS011;15183;51.350;11.102;2023-01-01T02:50:19;5.65;;;2.00;;
27804;SDS011;15183;51.350;11.102;2023-01-01T02:53:07;7.78;;;2.05;;
27804;SDS011;15183;51.350;11.102;2023-01-01T02:58:42;6.32;;;2.30;;
27804;SDS011;15183;51.350;11.102;2023-01-01T03:01:55;3.47;;;2.08;;
27804;SDS011;15183;51.350;11.102;2023-01-01T03:07:53;5.72;;;1.95;;
27804;SDS011;15183;51.350;11.102;2023-01-01T03:16:17;4.78;;;2.05;;
27804;SDS011;15183;51.350;11.102;2023-01-01T03:19:05;6.13;;;2.30;;
27804;SDS011;15183;51.350;11.102;2023-01-01T03:21:47;5.75;;;2.75;;
27804;SDS011;15183;51.350;11.102;2023-01-01T03:24:32;7.03;;;2.28;;
27804;SDS011;15183;51.350;11.102;2023-01-01T03:27:11;5.72;;;2.63;;
27804;SDS011;15183;51.350;11.102;2023-01-01T03:29:47;6.97;;;2.10;;
27804;SDS011;15183;51.350;11.102;2023-01-01T03:32:19;6.20;;;2.25;;
27804;SDS011;15183;51.350;11.102;2023-01-01T03:35:13;3.53;;;2.00;;
27804;SDS011;15183;51.350;11.102;2023-01-01T03:37:42;3.60;;;2.40;;
27804;SDS011;15183;51.350;11.102;2023-01-01T03:40:11;4.15;;;2.40;;
27804;SDS011;15183;51.350;11.102;2023-01-01T03:42:43;3.22;;;2.13;;
27804;SDS011;15183;51.350;11.102;2023-01-01T03:45:23;3.92;;;2.20;;
27804;SDS011;15183;51.350;11.102;2023-01-01T03:47:58;5.85;;;2.97;;
27804;SDS011;15183;51.350;11.102;2023-01-01T03:50:29;6.20;;;2.78;;
27804;SDS011;15183;51.350;11.102;2023-01-01T03:53:26;5.38;;;2.30;;
27804;SDS011;15183;51.350;11.102;2023-01-01T03:59:12;6.00;;;2.38;;
27804;SDS011;15183;51.350;11.102;2023-01-01T04:01:50;3.30;;;2.60;;
27804;SDS011;15183;51.350;11.102;2023-01-01T04:04:21;4.97;;;2.35;;
27804;SDS011;15183;51.350;11.102;2023-01-01T04:06:51;7.43;;;2.78;;
27804;SDS011;15183;51.350;11.102;2023-01-01T04:09:19;3.53;;;2.03;;
27804;SDS011;15183;51.350;11.102;2023-01-01T04:11:53;3.72;;;2.88;;
27804;SDS011;15183;51.350;11.102;2023-01-01T04:14:32;4.25;;;2.80;;
27804;SDS011;15183;51.350;11.102;2023-01-01T04:17:01;5.07;;;2.70;;
27804;SDS011;15183;51.350;11.102;2023-01-01T04:19:29;5.75;;;2.95;;
27804;SDS011;15183;51.350;11.102;2023-01-01T04:21:56;5.10;;;2.70;;
27804;SDS011;15183;51.350;11.102;2023-01-01T04:24:23;4.47;;;2.80;;
27804;SDS011;15183;51.350;11.102;2023-01-01T04:26:50;4.95;;;3.08;;
27804;SDS011;15183;51.350;11.102;2023-01-01T04:29:17;5.60;;;2.97;;
27804;SDS011;15183;51.350;11.102;2023-01-01T04:31:44;4.47;;;2.85;;
27804;SDS011;15183;51.350;11.102;2023-01-01T04:34:11;5.78;;;3.20;;
27804;SDS011;15183;51.350;11.102;2023-01-01T04:36:38;4.57;;;2.78;;
27804;SDS011;15183;51.350;11.102;2023-01-01T04:39:04;4.30;;;3.13;;
27804;SDS011;15183;51.350;11.102;2023-01-01T04:41:31;4.80;;;3.20;;
27804;SDS011;15183;51.350;11.102;2023-01-01T04:43:58;6.60;;;3.58;;
27804;SDS011;15183;51.350;11.102;2023-01-01T04:46:25;6.57;;;3.17;;
27804;SDS011;15183;51.350;11.102;2023-01-01T04:48:51;5.32;;;3.28;;
27804;SDS011;15183;51.350;11.102;2023-01-01T04:51:19;5.10;;;3.00;;
27804;SDS011;15183;51.350;11.102;2023-01-01T04:53:46;5.40;;;3.70;;
27804;SDS011;15183;51.350;11.102;2023-01-01T04:56:13;6.47;;;3.50;;
27804;SDS011;15183;51.350;11.102;2023-01-01T04:58:45;4.80;;;3.22;;
27804;SDS011;15183;51.350;11.102;2023-01-01T05:01:14;5.45;;;3.15;;
27804;SDS011;15183;51.350;11.102;2023-01-01T05:03:46;6.28;;;3.30;;
27804;SDS011;15183;51.350;11.102;2023-01-01T05:06:13;4.55;;;3.20;;
27804;SDS011;15183;51.350;11.102;2023-01-01T05:08:41;7.55;;;3.47;;
27804;SDS011;15183;51.350;11.102;2023-01-01T05:11:14;6.50;;;3.20;;
27804;SDS011;15183;51.350;11.102;2023-01-01T05:13:48;4.28;;;3.00;;
27804;SDS011;15183;51.350;11.102;2023-01-01T05:16:18;5.45;;;3.65;;
27804;SDS011;15183;51.350;11.102;2023-01-01T05:18:47;8.27;;;3.97;;
27804;SDS011;15183;51.350;11.102;2023-01-01T05:21:19;5.53;;;3.58;;
27804;SDS011;15183;51.350;11.102;2023-01-01T05:23:48;6.45;;;4.07;;
27804;SDS011;15183;51.350;11.102;2023-01-01T05:26:20;4.50;;;3.25;;
27804;SDS011;15183;51.350;11.102;2023-01-01T05:28:48;5.95;;;3.40;;
27804;SDS011;15183;51.350;11.102;2023-01-01T05:31:16;5.53;;;3.50;;
27804;SDS011;15183;51.350;11.102;2023-01-01T05:33:45;6.63;;;3.60;;
27804;SDS011;15183;51.350;11.102;2023-01-01T05:36:17;6.45;;;3.70;;
27804;SDS011;15183;51.350;11.102;2023-01-01T05:38:49;5.32;;;3.22;;
27804;SDS011;15183;51.350;11.102;2023-01-01T05:41:17;5.07;;;3.45;;
27804;SDS011;15183;51.350;11.102;2023-01-01T05:43:45;6.35;;;3.67;;
27804;SDS011;15183;51.350;11.102;2023-01-01T05:46:13;6.15;;;3.22;;
27804;SDS011;15183;51.350;11.102;2023-01-01T05:48:44;5.82;;;3.42;;
27804;SDS011;15183;51.350;11.102;2023-01-01T05:51:14;8.43;;;4.28;;
27804;SDS011;15183;51.350;11.102;2023-01-01T05:53:43;6.32;;;4.05;;
27804;SDS011;15183;51.350;11.102;2023-01-01T05:56:10;5.80;;;3.42;;
27804;SDS011;15183;51.350;11.102;2023-01-01T05:58:38;5.65;;;3.53;;
27804;SDS011;15183;51.350;11.102;2023-01-01T06:03:42;5.80;;;3.45;;
27804;SDS011;15183;51.350;11.102;2023-01-01T06:06:10;5.07;;;3.42;;
27804;SDS011;15183;51.350;11.102;2023-01-01T06:08:39;5.75;;;3.42;;
27804;SDS011;15183;51.350;11.102;2023-01-01T06:11:07;5.32;;;3.03;;
27804;SDS011;15183;51.350;11.102;2023-01-01T06:13:36;6.43;;;3.08;;
27804;SDS011;15183;51.350;11.102;2023-01-01T06:16:03;5.97;;;2.65;;
27804;SDS011;15183;51.350;11.102;2023-01-01T06:18:32;6.25;;;3.42;;
27804;SDS011;15183;51.350;11.102;2023-01-01T06:21:07;5.93;;;2.92;;
27804;SDS011;15183;51.350;11.102;2023-01-01T06:23:42;3.72;;;2.95;;
27804;SDS011;15183;51.350;11.102;2023-01-01T06:26:10;4.95;;;2.80;;
27804;SDS011;15183;51.350;11.102;2023-01-01T06:28:45;5.75;;;3.28;;
27804;SDS011;15183;51.350;11.102;2023-01-01T06:31:13;6.32;;;3.15;;
27804;SDS011;15183;51.350;11.102;2023-01-01T06:33:42;4.85;;;2.30;;
27804;SDS011;15183;51.350;11.102;2023-01-01T06:36:11;3.42;;;2.50;;
27804;SDS011;15183;51.350;11.102;2023-01-01T06:38:43;4.60;;;2.60;;
27804;SDS011;15183;51.350;11.102;2023-01-01T06:41:13;3.72;;;2.28;;
27804;SDS011;15183;51.350;11.102;2023-01-01T06:43:44;3.95;;;2.55;;
27804;SDS011;15183;51.350;11.102;2023-01-01T06:46:16;8.50;;;2.20;;
27804;SDS011;15183;51.350;11.102;2023-01-01T06:48:54;6.47;;;2.50;;
27804;SDS011;15183;51.350;11.102;2023-01-01T06:51:24;3.78;;;2.30;;
27804;SDS011;15183;51.350;11.102;2023-01-01T06:53:57;5.97;;;2.78;;
27804;SDS011;15183;51.350;11.102;2023-01-01T06:56:26;3.45;;;2.53;;
27804;SDS011;15183;51.350;11.102;2023-01-01T06:58:53;6.65;;;2.30;;
27804;SDS011;15183;51.350;11.102;2023-01-01T07:01:20;3.30;;;2.40;;
27804;SDS011;15183;51.350;11.102;2023-01-01T07:03:50;4.28;;;2.13;;
27804;SDS011;15183;51.350;11.102;2023-01-01T07:06:22;3.35;;;2.25;;
27804;SDS011;15183;51.350;11.102;2023-01-01T07:08:50;5.22;;;1.92;;
27804;SDS011;15183;51.350;11.102;2023-01-01T07:11:16;3.42;;;1.90;;
27804;SDS011;15183;51.350;11.102;2023-01-01T07:13:43;2.45;;;1.90;;
27804;SDS011;15183;51.350;11.102;2023-01-01T07:16:10;3.20;;;1.80;;
27804;SDS011;15183;51.350;11.102;2023-01-01T07:18:37;3.42;;;1.80;;
27804;SDS011;15183;51.350;11.102;2023-01-01T07:21:04;4.97;;;2.13;;
27804;SDS011;15183;51.350;11.102;2023-01-01T07:23:32;4.40;;;1.88;;
27804;SDS011;15183;51.350;11.102;2023-01-01T07:26:00;2.92;;;1.95;;
27804;SDS011;15183;51.350;11.102;2023-01-01T07:28:26;3.40;;;2.10;;
27804;SDS011;15183;51.350;11.102;2023-01-01T07:30:53;5.38;;;2.25;;
27804;SDS011;15183;51.350;11.102;2023-01-01T07:33:21;3.53;;;1.85;;
27804;SDS011;15183;51.350;11.102;2023-01-01T07:35:49;5.30;;;1.88;;
27804;SDS011;15183;51.350;11.102;2023-01-01T07:38:15;3.45;;;1.80;;
27804;SDS011;15183;51.350;11.102;2023-01-01T07:40:42;3.72;;;2.03;;
27804;SDS011;15183;51.350;11.102;2023-01-01T07:43:08;4.78;;;2.80;;
27804;SDS011;15183;51.350;11.102;2023-01-01T07:45:37;5.20;;;2.95;;
27804;SDS011;15183;51.350;11.102;2023-01-01T07:48:03;5.90;;;3.42;;
27804;SDS011;15183;51.350;11.102;2023-01-01T07:50:30;5.20;;;3.40;;
27804;SDS011;15183;51.350;11.102;2023-01-01T07:52:57;4.68;;;3.67;;
27804;SDS011;15183;51.350;11.102;2023-01-01T07:55:24;7.20;;;4.10;;
27804;SDS011;15183;51.350;11.102;2023-01-01T07:57:51;7.30;;;5.28;;
27804;SDS011;15183;51.350;11.102;2023-01-01T08:00:18;7.57;;;5.28;;
27804;SDS011;15183;51.350;11.102;2023-01-01T08:02:46;7.45;;;4.32;;
27804;SDS011;15183;51.350;11.102;2023-01-01T08:05:13;8.60;;;4.43;;
27804;SDS011;15183;51.350;11.102;2023-01-01T08:07:41;7.32;;;4.20;;
27804;SDS011;15183;51.350;11.102;2023-01-01T08:10:12;7.57;;;4.43;;
27804;SDS011;15183;51.350;11.102;2023-01-01T08:12:39;4.82;;;3.17;;
27804;SDS011;15183;51.350;11.102;2023-01-01T08:15:06;6.40;;;3.67;;
27804;SDS011;15183;51.350;11.102;2023-01-01T08:17:34;5.63;;;2.80;;
27804;SDS011;15183;51.350;11.102;2023-01-01T08:20:00;7.78;;;2.85;;
27804;SDS011;15183;51.350;11.102;2023-01-01T08:22:27;5.45;;;3.58;;
27804;SDS011;15183;51.350;11.102;2023-01-01T08:24:53;6.38;;;3.78;;
27804;SDS011;15183;51.350;11.102;2023-01-01T08:27:19;5.13;;;4.18;;
27804;SDS011;15183;51.350;11.102;2023-01-01T08:29:46;6.57;;;2.75;;
27804;SDS011;15183;51.350;11.102;2023-01-01T08:32:13;7.85;;;2.67;;
27804;SDS011;15183;51.350;11.102;2023-01-01T08:34:39;5.82;;;2.45;;
27804;SDS011;15183;51.350;11.102;2023-01-01T08:37:08;3.65;;;2.38;;
27804;SDS011;15183;51.350;11.102;2023-01-01T08:39:38;5.90;;;2.75;;
27804;SDS011;15183;51.350;11.102;2023-01-01T08:42:05;5.20;;;2.55;;
27804;SDS011;15183;51.350;11.102;2023-01-01T08:44:32;3.80;;;2.08;;
27804;SDS011;15183;51.350;11.102;2023-01-01T08:46:58;3.88;;;2.22;;
27804;SDS011;15183;51.350;11.102;2023-01-01T08:49:25;3.85;;;2.10;;
27804;SDS011;15183;51.350;11.102;2023-01-01T08:51:51;4.30;;;2.50;;
27804;SDS011;15183;51.350;11.102;2023-01-01T08:54:18;4.15;;;2.30;;
27804;SDS011;15183;51.350;11.102;2023-01-01T08:56:44;5.40;;;2.90;;
27804;SDS011;15183;51.350;11.102;2023-01-01T08:59:10;6.03;;;2.13;;
27804;SDS011;15183;51.350;11.102;2023-01-01T09:01:37;4.10;;;2.30;;
27804;SDS011;15183;51.350;11.102;2023-01-01T09:04:03;2.95;;;1.95;;
27804;SDS011;15183;51.350;11.102;2023-01-01T09:06:32;4.03;;;1.65;;
27804;SDS011;15183;51.350;11.102;2023-01-01T09:08:58;3.90;;;2.17;;
27804;SDS011;15183;51.350;11.102;2023-01-01T09:11:25;3.58;;;1.98;;
27804;SDS011;15183;51.350;11.102;2023-01-01T09:13:53;5.03;;;2.28;;
27804;SDS011;15183;51.350;11.102;2023-01-01T09:16:20;3.75;;;1.80;;
27804;SDS011;15183;51.350;11.102;2023-01-01T09:18:47;6.57;;;1.75;;
27804;SDS011;15183;51.350;11.102;2023-01-01T09:21:14;5.47;;;1.75;;
27804;SDS011;15183;51.350;11.102;2023-01-01T09:23:40;6.35;;;2.25;;
27804;SDS011;15183;51.350;11.102;2023-01-01T09:26:07;4.95;;;2.40;;
27804;SDS011;15183;51.350;11.102;2023-01-01T09:28:35;6.00;;;2.00;;
27804;SDS011;15183;51.350;11.102;2023-01-01T09:31:02;4.95;;;1.95;;
27804;SDS011;15183;51.350;11.102;2023-01-01T09:33:31;4.72;;;1.90;;
27804;SDS011;15183;51.350;11.102;2023-01-01T09:36:12;6.60;;;1.88;;
27804;SDS011;15183;51.350;11.102;2023-01-01T09:38:50;6.05;;;1.80;;
27804;SDS011;15183;51.350;11.102;2023-01-01T09:41:21;5.65;;;2.28;;
27804;SDS011;15183;51.350;11.102;2023-01-01T09:47:21;8.07;;;1.85;;
27804;SDS011;15183;51.350;11.102;2023-01-01T09:50:05;5.43;;;1.98;;
27804;SDS011;15183;51.350;11.102;2023-01-01T09:52:50;6.00;;;2.15;;
27804;SDS011;15183;51.350;11.102;2023-01-01T09:55:46;4.32;;;2.35;;
27804;SDS011;15183;51.350;11.102;2023-01-01T09:58:20;7.60;;;2.13;;
27804;SDS011;15183;51.350;11.102;2023-01-01T10:00:55;4.57;;;2.00;;
27804;SDS011;15183;51.350;11.102;2023-01-01T10:03:48;6.97;;;2.25;;
27804;SDS011;15183;51.350;11.102;2023-01-01T10:06:29;7.25;;;2.22;;
27804;SDS011;15183;51.350;11.102;2023-01-01T10:14:45;6.20;;;2.80;;
27804;SDS011;15183;51.350;11.102;2023-01-01T10:17:18;6.97;;;3.07;;
27804;SDS011;15183;51.350;11.102;2023-01-01T10:19:57;8.77;;;4.30;;
27804;SDS011;15183;51.350;11.102;2023-01-01T10:22:30;11.27;;;4.75;;
27804;SDS011;15183;51.350;11.102;2023-01-01T10:25:05;7.18;;;3.35;;
27804;SDS011;15183;51.350;11.102;2023-01-01T10:27:59;4.78;;;2.80;;
27804;SDS011;15183;51.350;11.102;2023-01-01T10:30:40;5.60;;;2.85;;
27804;SDS011;15183;51.350;11.102;2023-01-01T10:33:09;5.40;;;3.22;;
27804;SDS011;15183;51.350;11.102;2023-01-01T10:35:50;5.78;;;2.72;;
27804;SDS011;15183;51.350;11.102;2023-01-01T10:38:22;7.43;;;2.92;;
27804;SDS011;15183;51.350;11.102;2023-01-01T10:40:51;6.57;;;3.20;;
27804;SDS011;15183;51.350;11.102;2023-01-01T10:43:24;5.97;;;2.63;;
27804;SDS011;15183;51.350;11.102;2023-01-01T10:45:51;8.23;;;3.25;;
27804;SDS011;15183;51.350;11.102;2023-01-01T10:48:37;5.97;;;2.40;;
27804;SDS011;15183;51.350;11.102;2023-01-01T10:51:15;5.75;;;2.88;;
27804;SDS011;15183;51.350;11.102;2023-01-01T10:53:50;4.60;;;2.25;;
27804;SDS011;15183;51.350;11.102;2023-01-01T10:56:18;9.05;;;3.80;;
27804;SDS011;15183;51.350;11.102;2023-01-01T10:58:48;10.25;;;3.60;;
27804;SDS011;15183;51.350;11.102;2023-01-01T11:04:02;4.13;;;2.30;;
27804;SDS011;15183;51.350;11.102;2023-01-01T11:06:45;6.95;;;2.53;;
27804;SDS011;15183;51.350;11.102;2023-01-01T11:09:23;5.40;;;2.83;;
27804;SDS011;15183;51.350;11.102;2023-01-01T11:12:02;4.30;;;2.80;;
27804;SDS011;15183;51.350;11.102;2023-01-01T11:14:51;3.95;;;2.38;;
27804;SDS011;15183;51.350;11.102;2023-01-01T11:17:24;6.68;;;2.80;;
27804;SDS011;15183;51.350;11.102;2023-01-01T11:19:57;7.45;;;2.08;;
27804;SDS011;15183;51.350;11.102;2023-01-01T11:22:41;5.38;;;2.20;;
27804;SDS011;15183;51.350;11.102;2023-01-01T11:25:29;7.88;;;2.05;;
27804;SDS011;15183;51.350;11.102;2023-01-01T11:30:40;5.68;;;2.25;;
27804;SDS011;15183;51.350;11.102;2023-01-01T11:33:22;4.18;;;2.03;;
27804;SDS011;15183;51.350;11.102;2023-01-01T11:35:49;7.97;;;2.90;;
27804;SDS011;15183;51.350;11.102;2023-01-01T11:38:20;6.90;;;2.45;;
27804;SDS011;15183;51.350;11.102;2023-01-01T11:40:52;6.60;;;2.63;;
27804;SDS011;15183;51.350;11.102;2023-01-01T11:43:22;6.85;;;3.65;;
27804;SDS011;15183;51.350;11.102;2023-01-01T11:45:53;6.55;;;2.78;;
27804;SDS011;15183;51.350;11.102;2023-01-01T11:48:29;5.63;;;2.63;;
27804;SDS011;15183;51.350;11.102;2023-01-01T11:53:29;6.22;;;2.60;;
27804;SDS011;15183;51.350;11.102;2023-01-01T11:58:52;9.02;;;3.60;;
27804;SDS011;15183;51.350;11.102;2023-01-01T12:01:35;6.20;;;3.28;;
27804;SDS011;15183;51.350;11.102;2023-01-01T12:07:09;7.53;;;3.65;;
27804;SDS011;15183;51.350;11.102;2023-01-01T12:09:59;4.53;;;3.15;;
27804;SDS011;15183;51.350;11.102;2023-01-01T12:13:00;7.88;;;2.50;;
27804;SDS011;15183;51.350;11.102;2023-01-01T12:15:40;6.40;;;2.47;;
27804;SDS011;15183;51.350;11.102;2023-01-01T12:18:36;3.90;;;2.78;;
27804;SDS011;15183;51.350;11.102;2023-01-01T12:21:35;4.57;;;2.33;;
27804;SDS011;15183;51.350;11.102;2023-01-01T12:24:09;4.97;;;2.33;;
27804;SDS011;15183;51.350;11.102;2023-01-01T12:32:46;6.60;;;2.58;;
27804;SDS011;15183;51.350;11.102;2023-01-01T12:44:15;4.43;;;1.98;;
27804;SDS011;15183;51.350;11.102;2023-01-01T12:47:28;5.28;;;2.55;;
27804;SDS011;15183;51.350;11.102;2023-01-01T12:50:22;5.47;;;2.45;;
27804;SDS011;15183;51.350;11.102;2023-01-01T12:56:03;5.70;;;1.77;;
27804;SDS011;15183;51.350;11.102;2023-01-01T12:58:53;7.35;;;2.50;;
27804;SDS011;15183;51.350;11.102;2023-01-01T13:01:43;5.13;;;2.17;;
27804;SDS011;15183;51.350;11.102;2023-01-01T13:04:16;6.38;;;2.65;;
27804;SDS011;15183;51.350;11.102;2023-01-01T13:09:29;8.00;;;2.10;;
27804;SDS011;15183;51.350;11.102;2023-01-01T13:14:44;7.07;;;2.28;;
27804;SDS011;15183;51.350;11.102;2023-01-01T13:17:18;5.53;;;2.55;;
27804;SDS011;15183;51.350;11.102;2023-01-01T13:19:53;4.65;;;2.45;;
27804;SDS011;15183;51.350;11.102;2023-01-01T13:22:46;3.78;;;1.50;;
27804;SDS011;15183;51.350;11.102;2023-01-01T13:33:17;4.20;;;2.70;;
27804;SDS011;15183;51.350;11.102;2023-01-01T13:46:26;5.68;;;2.40;;
27804;SDS011;15183;51.350;11.102;2023-01-01T13:52:31;4.10;;;2.35;;
27804;SDS011;15183;51.350;11.102;2023-01-01T14:07:49;4.80;;;2.00;;
27804;SDS011;15183;51.350;11.102;2023-01-01T14:12:45;8.15;;;1.50;;
27804;SDS011;15183;51.350;11.102;2023-01-01T14:17:55;3.58;;;1.70;;
27804;SDS011;15183;51.350;11.102;2023-01-01T14:20:31;4.38;;;1.92;;
27804;SDS011;15183;51.350;11.102;2023-01-01T14:23:22;3.50;;;1.98;;
27804;SDS011;15183;51.350;11.102;2023-01-01T14:26:08;2.50;;;1.50;;
27804;SDS011;15183;51.350;11.102;2023-01-01T14:28:42;6.22;;;1.58;;
27804;SDS011;15183;51.350;11.102;2023-01-01T14:31:17;5.90;;;1.70;;
27804;SDS011;15183;51.350;11.102;2023-01-01T14:33:45;3.70;;;2.25;;
27804;SDS011;15183;51.350;11.102;2023-01-01T14:36:33;3.25;;;1.85;;
27804;SDS011;15183;51.350;11.102;2023-01-01T14:41:27;2.58;;;1.58;;
27804;SDS011;15183;51.350;11.102;2023-01-01T14:43:57;4.35;;;1.73;;
27804;SDS011;15183;51.350;11.102;2023-01-01T14:46:40;7.00;;;1.85;;
27804;SDS011;15183;51.350;11.102;2023-01-01T14:49:17;3.78;;;1.98;;
27804;SDS011;15183;51.350;11.102;2023-01-01T14:51:55;3.97;;;1.80;;
27804;SDS011;15183;51.350;11.102;2023-01-01T14:54:29;3.80;;;2.20;;
27804;SDS011;15183;51.350;11.102;2023-01-01T14:57:02;4.55;;;3.00;;
27804;SDS011;15183;51.350;11.102;2023-01-01T14:59:36;5.50;;;1.83;;
27804;SDS011;15183;51.350;11.102;2023-01-01T15:02:20;3.97;;;1.98;;
27804;SDS011;15183;51.350;11.102;2023-01-01T15:04:53;5.20;;;1.70;;
27804;SDS011;15183;51.350;11.102;2023-01-01T15:07:22;3.65;;;1.92;;
27804;SDS011;15183;51.350;11.102;2023-01-01T15:09:50;4.43;;;2.10;;
27804;SDS011;15183;51.350;11.102;2023-01-01T15:12:19;3.22;;;2.10;;
27804;SDS011;15183;51.350;11.102;2023-01-01T15:14:46;2.95;;;1.80;;
27804;SDS011;15183;51.350;11.102;2023-01-01T15:17:22;6.18;;;2.15;;
27804;SDS011;15183;51.350;11.102;2023-01-01T15:22:26;5.78;;;2.25;;
27804;SDS011;15183;51.350;11.102;2023-01-01T15:24:57;6.85;;;2.08;;
27804;SDS011;15183;51.350;11.102;2023-01-01T15:27:28;5.30;;;2.05;;
27804;SDS011;15183;51.350;11.102;2023-01-01T15:30:02;3.15;;;1.75;;
27804;SDS011;15183;51.350;11.102;2023-01-01T15:32:31;6.82;;;2.20;;
27804;SDS011;15183;51.350;11.102;2023-01-01T15:35:06;5.70;;;2.20;;
27804;SDS011;15183;51.350;11.102;2023-01-01T15:40:47;8.15;;;2.17;;
27804;SDS011;15183;51.350;11.102;2023-01-01T15:43:21;5.35;;;1.80;;
27804;SDS011;15183;51.350;11.102;2023-01-01T15:45:55;4.70;;;1.95;;
27804;SDS011;15183;51.350;11.102;2023-01-01T15:48:29;3.40;;;1.73;;
27804;SDS011;15183;51.350;11.102;2023-01-01T15:51:09;3.28;;;1.50;;
27804;SDS011;15183;51.350;11.102;2023-01-01T15:53:48;5.88;;;1.70;;
27804;SDS011;15183;51.350;11.102;2023-01-01T15:56:30;3.13;;;1.40;;
27804;SDS011;15183;51.350;11.102;2023-01-01T15:59:03;3.45;;;1.50;;
27804;SDS011;15183;51.350;11.102;2023-01-01T16:01:59;3.42;;;1.73;;
27804;SDS011;15183;51.350;11.102;2023-01-01T16:04:46;5.68;;;1.35;;
27804;SDS011;15183;51.350;11.102;2023-01-01T16:07:24;2.63;;;1.52;;
27804;SDS011;15183;51.350;11.102;2023-01-01T16:09:52;3.13;;;1.60;;
27804;SDS011;15183;51.350;11.102;2023-01-01T16:12:19;4.45;;;1.52;;
27804;SDS011;15183;51.350;11.102;2023-01-01T16:14:46;4.53;;;2.00;;
27804;SDS011;15183;51.350;11.102;2023-01-01T16:17:16;7.25;;;1.73;;
27804;SDS011;15183;51.350;11.102;2023-01-01T16:19:44;6.47;;;2.17;;
27804;SDS011;15183;51.350;11.102;2023-01-01T16:22:13;4.38;;;1.90;;
27804;SDS011;15183;51.350;11.102;2023-01-01T16:24:42;5.03;;;1.67;;
27804;SDS011;15183;51.350;11.102;2023-01-01T16:27:09;4.10;;;1.60;;
27804;SDS011;15183;51.350;11.102;2023-01-01T16:29:36;5.35;;;1.67;;
27804;SDS011;15183;51.350;11.102;2023-01-01T16:32:03;3.97;;;2.03;;
27804;SDS011;15183;51.350;11.102;2023-01-01T16:34:29;5.65;;;1.70;;
27804;SDS011;15183;51.350;11.102;2023-01-01T16:36:56;9.60;;;2.30;;
27804;SDS011;15183;51.350;11.102;2023-01-01T16:39:22;8.55;;;1.77;;
27804;SDS011;15183;51.350;11.102;2023-01-01T16:41:48;8.68;;;1.60;;
27804;SDS011;15183;51.350;11.102;2023-01-01T16:44:15;5.95;;;2.00;;
27804;SDS011;15183;51.350;11.102;2023-01-01T16:46:41;5.07;;;1.75;;
27804;SDS011;15183;51.350;11.102;2023-01-01T16:49:08;5.93;;;1.77;;
27804;SDS011;15183;51.350;11.102;2023-01-01T16:51:35;4.40;;;1.52;;
27804;SDS011;15183;51.350;11.102;2023-01-01T16:54:01;7.28;;;1.80;;
27804;SDS011;15183;51.350;11.102;2023-01-01T16:56:28;3.30;;;1.45;;
27804;SDS011;15183;51.350;11.102;2023-01-01T16:58:54;6.05;;;1.83;;
27804;SDS011;15183;51.350;11.102;2023-01-01T17:01:22;5.35;;;1.40;;
27804;SDS011;15183;51.350;11.102;2023-01-01T17:03:48;3.83;;;1.70;;
27804;SDS011;15183;51.350;11.102;2023-01-01T17:06:15;4.43;;;1.83;;